createdAt,value
2017-11-09T00:00:42.506Z,30.60
2017-11-09T00:03:11.606Z,27.43
2017-11-09T00:05:45.469Z,29.10
2017-11-09T00:08:13.767Z,30.67
2017-11-09T00:10:42.066Z,28.23
2017-11-09T00:13:10.407Z,28.53
2017-11-09T00:15:39.473Z,31.30
2017-11-09T00:18:07.781Z,28.83
2017-11-09T00:20:36.089Z,25.83
2017-11-09T00:23:05.154Z,31.30
2017-11-09T00:25:33.451Z,29.30
2017-11-09T00:28:01.744Z,29.47
2017-11-09T00:30:30.077Z,30.77
2017-11-09T00:32:59.128Z,30.70
2017-11-09T00:35:27.420Z,35.40
2017-11-09T00:37:55.712Z,31.73
2017-11-09T00:40:24.004Z,32.30
2017-11-09T00:42:52.293Z,29.87
2017-11-09T00:45:20.597Z,31.97
2017-11-09T00:47:48.884Z,31.63
2017-11-09T00:50:17.178Z,33.37
2017-11-09T00:52:45.485Z,33.77
2017-11-09T00:55:14.567Z,33.63
2017-11-09T00:57:42.873Z,34.97
2017-11-09T01:00:11.971Z,32.67
2017-11-09T01:02:41.095Z,34.33
2017-11-09T01:05:10.174Z,48.80
2017-11-09T01:07:38.475Z,31.17
2017-11-09T01:10:06.764Z,32.83
2017-11-09T01:12:35.082Z,34.47
2017-11-09T01:15:04.172Z,33.60
2017-11-09T01:17:32.487Z,31.10
2017-11-09T01:20:00.788Z,29.20
2017-11-09T01:22:29.088Z,28.10
2017-11-09T01:24:57.383Z,28.53
2017-11-09T01:27:25.682Z,29.03
2017-11-09T01:29:53.976Z,29.50
2017-11-09T01:32:22.270Z,29.63
2017-11-09T01:34:50.564Z,30.63
2017-11-09T01:37:18.855Z,29.83
2017-11-09T01:39:47.165Z,32.67
2017-11-09T01:42:16.232Z,31.70
2017-11-09T01:44:44.554Z,30.57
2017-11-09T01:47:13.635Z,29.10
2017-11-09T01:49:41.966Z,29.33
2017-11-09T01:52:11.076Z,31.57
2017-11-09T01:54:40.133Z,29.80
2017-11-09T01:57:09.204Z,31.73
2017-11-09T01:59:37.516Z,31.77
2017-11-09T02:02:05.808Z,29.63
2017-11-09T02:04:34.140Z,27.63
2017-11-09T02:07:02.420Z,29.13
2017-11-09T02:09:30.721Z,27.23
2017-11-09T02:11:59.788Z,28.23
2017-11-09T02:14:28.074Z,27.50
2017-11-09T02:16:56.365Z,29.00
2017-11-09T02:19:24.844Z,29.20
2017-11-09T02:21:53.241Z,29.53
2017-11-09T02:24:21.567Z,27.90
2017-11-09T02:26:50.712Z,29.27
2017-11-09T02:29:19.084Z,29.87
2017-11-09T02:31:48.238Z,28.80
2017-11-09T02:34:16.592Z,29.87
2017-11-09T02:36:44.989Z,29.53
2017-11-09T02:39:13.372Z,30.70
2017-11-09T02:41:41.775Z,28.80
2017-11-09T02:44:10.085Z,27.80
2017-11-09T02:46:38.397Z,30.27
2017-11-09T02:49:06.690Z,28.77
2017-11-09T02:51:34.995Z,29.30
2017-11-09T02:54:03.281Z,25.37
2017-11-09T02:56:31.584Z,28.67
2017-11-09T02:59:00.663Z,28.87
2017-11-09T03:01:28.971Z,30.63
2017-11-09T03:03:57.403Z,31.77
2017-11-09T03:06:25.704Z,27.70
2017-11-09T03:08:53.984Z,28.23
2017-11-09T03:11:22.268Z,30.67
2017-11-09T03:13:50.560Z,27.73
2017-11-09T03:16:18.867Z,27.10
2017-11-09T03:18:47.182Z,27.20
2017-11-09T03:21:15.518Z,31.37
2017-11-09T03:23:43.851Z,30.67
2017-11-09T03:26:12.159Z,28.97
2017-11-09T03:28:40.474Z,35.10
2017-11-09T03:31:08.781Z,31.93
2017-11-09T03:33:37.058Z,28.90
2017-11-09T03:36:05.392Z,31.13
2017-11-09T03:38:33.708Z,31.70
2017-11-09T03:41:02.010Z,29.90
2017-11-09T03:43:31.083Z,35.37
2017-11-09T03:45:59.399Z,31.60
2017-11-09T03:48:28.499Z,32.70
2017-11-09T03:50:56.788Z,32.13
2017-11-09T03:53:25.079Z,31.53
2017-11-09T03:55:53.380Z,29.37
2017-11-09T03:58:22.465Z,32.10
2017-11-09T04:00:50.753Z,32.13
2017-11-09T04:03:19.048Z,32.30
2017-11-09T04:05:47.343Z,30.47
2017-11-09T04:08:15.660Z,30.40
2017-11-09T04:10:44.724Z,32.67
2017-11-09T04:13:13.055Z,33.77
2017-11-09T04:15:41.377Z,34.50
2017-11-09T04:18:09.694Z,32.57
2017-11-09T04:20:37.984Z,34.67
2017-11-09T04:23:06.292Z,34.30
2017-11-09T04:25:35.347Z,36.60
2017-11-09T04:28:03.644Z,34.40
2017-11-09T04:30:31.939Z,34.33
2017-11-09T04:33:00.268Z,34.70
2017-11-09T04:35:28.572Z,31.07
2017-11-09T04:37:57.795Z,38.30
2017-11-09T04:40:26.095Z,32.37
2017-11-09T04:42:54.386Z,33.10
2017-11-09T04:45:22.675Z,33.20
2017-11-09T04:47:50.971Z,33.97
2017-11-09T04:50:19.299Z,37.67
2017-11-09T04:52:47.646Z,34.93
2017-11-09T04:55:15.952Z,33.73
2017-11-09T04:57:44.275Z,34.10
2017-11-09T05:00:13.390Z,33.00
2017-11-09T05:02:42.496Z,35.57
2017-11-09T05:05:10.794Z,31.50
2017-11-09T05:07:39.869Z,36.00
2017-11-09T05:10:08.180Z,34.67
2017-11-09T05:12:36.471Z,34.50
2017-11-09T05:15:05.530Z,34.40
2017-11-09T05:17:33.825Z,34.27
2017-11-09T05:20:02.145Z,35.43
2017-11-09T05:22:30.463Z,33.93
2017-11-09T05:24:58.788Z,35.67
2017-11-09T05:27:27.083Z,35.10
2017-11-09T05:29:55.407Z,35.10
2017-11-09T05:32:23.697Z,31.03
2017-11-09T05:34:52.010Z,31.90
2017-11-09T05:37:21.093Z,35.03
2017-11-09T05:39:49.391Z,31.10
2017-11-09T05:42:18.456Z,34.60
2017-11-09T05:44:46.745Z,35.67
2017-11-09T05:47:15.054Z,36.80
2017-11-09T05:49:43.363Z,39.87
2017-11-09T05:52:12.471Z,38.20
2017-11-09T05:54:42.518Z,40.17
2017-11-09T05:57:10.839Z,39.47
2017-11-09T05:59:39.217Z,40.27
2017-11-09T06:02:07.505Z,37.87
2017-11-09T06:04:35.849Z,36.60
2017-11-09T06:07:04.168Z,34.47
2017-11-09T06:09:32.495Z,30.97
2017-11-09T06:12:00.811Z,31.57
2017-11-09T06:14:29.124Z,33.33
2017-11-09T06:16:58.205Z,33.17
2017-11-09T06:19:26.531Z,33.90
2017-11-09T06:21:54.833Z,32.70
2017-11-09T06:24:23.159Z,35.30
2017-11-09T06:26:51.476Z,35.00
2017-11-09T06:29:20.535Z,35.37
2017-11-09T06:31:48.857Z,33.53
2017-11-09T06:34:17.190Z,32.30
2017-11-09T06:36:45.494Z,32.57
2017-11-09T06:39:13.819Z,31.77
2017-11-09T06:41:42.242Z,32.53
2017-11-09T06:44:10.562Z,34.60
2017-11-09T06:46:38.886Z,31.80
2017-11-09T06:49:07.232Z,35.73
2017-11-09T06:51:35.516Z,31.90
2017-11-09T06:54:03.813Z,36.70
2017-11-09T06:56:32.114Z,35.57
2017-11-09T06:59:00.428Z,33.33
2017-11-09T07:01:28.775Z,33.30
2017-11-09T07:03:57.079Z,31.10
2017-11-09T07:06:25.376Z,34.47
2017-11-09T07:08:53.680Z,30.30
2017-11-09T07:11:21.977Z,30.43
2017-11-09T07:13:50.306Z,31.27
2017-11-09T07:16:18.615Z,30.60
2017-11-09T07:18:46.940Z,31.00
2017-11-09T07:21:15.250Z,27.80
2017-11-09T07:23:44.345Z,28.60
2017-11-09T07:26:12.686Z,30.40
2017-11-09T07:28:40.985Z,29.43
2017-11-09T07:31:09.295Z,28.03
2017-11-09T07:33:37.642Z,28.90
2017-11-09T07:36:06.714Z,32.37
2017-11-09T07:38:35.011Z,28.60
2017-11-09T07:41:03.330Z,26.00
2017-11-09T07:43:31.659Z,27.20
2017-11-09T07:45:59.963Z,23.17
2017-11-09T07:48:28.259Z,25.17
2017-11-09T07:50:56.568Z,22.67
2017-11-09T07:53:25.636Z,23.87
2017-11-09T07:55:53.936Z,26.43
2017-11-09T07:58:23.172Z,26.30
2017-11-09T08:00:51.478Z,23.73
2017-11-09T08:03:20.528Z,25.80
2017-11-09T08:05:48.816Z,26.07
2017-11-09T08:08:17.118Z,24.50
2017-11-09T08:10:45.451Z,23.50
2017-11-09T08:13:14.536Z,23.93
2017-11-09T08:15:42.861Z,24.97
2017-11-09T08:18:11.185Z,24.67
2017-11-09T08:20:39.473Z,26.23
2017-11-09T08:23:07.816Z,25.67
2017-11-09T08:25:37.261Z,25.20
2017-11-09T08:28:07.066Z,25.43
2017-11-09T08:30:37.451Z,26.07
2017-11-09T08:33:10.561Z,28.10
2017-11-09T08:35:39.781Z,26.70
2017-11-09T08:38:08.081Z,28.70
2017-11-09T08:40:36.560Z,30.20
2017-11-09T08:43:04.847Z,24.60
2017-11-09T08:45:33.146Z,25.27
2017-11-09T08:48:01.464Z,28.47
2017-11-09T08:50:30.520Z,27.40
2017-11-09T08:52:58.829Z,23.63
2017-11-09T08:55:27.140Z,26.30
2017-11-09T08:57:56.199Z,28.17
2017-11-09T09:00:24.484Z,30.13
2017-11-09T09:02:52.806Z,29.37
2017-11-09T09:05:21.140Z,30.60
2017-11-09T09:07:49.435Z,30.20
2017-11-09T09:10:17.743Z,27.47
2017-11-09T09:12:46.081Z,29.50
2017-11-09T09:15:15.161Z,26.53
2017-11-09T09:17:43.472Z,26.80
2017-11-09T09:20:11.816Z,27.80
2017-11-09T09:22:40.132Z,26.20
2017-11-09T09:25:29.222Z,25.97
2017-11-09T09:27:57.513Z,28.53
2017-11-09T09:30:28.028Z,27.80
2017-11-09T09:33:00.600Z,30.57
2017-11-09T09:35:30.293Z,29.87
2017-11-09T09:38:05.228Z,25.63
2017-11-09T09:40:35.603Z,29.50
2017-11-09T09:43:04.801Z,29.83
2017-11-09T09:45:33.162Z,34.07
2017-11-09T09:48:01.485Z,27.87
2017-11-09T09:50:29.820Z,31.03
2017-11-09T09:52:58.151Z,30.30
2017-11-09T09:55:26.467Z,32.93
2017-11-09T09:57:54.784Z,34.20
2017-11-09T10:00:23.086Z,32.97
2017-11-09T10:02:52.150Z,33.73
2017-11-09T10:05:20.454Z,34.87
2017-11-09T10:07:48.768Z,33.70
2017-11-09T10:10:17.845Z,30.33
2017-11-09T10:12:46.150Z,31.07
2017-11-09T10:15:14.472Z,31.67
2017-11-09T10:17:43.542Z,34.47
2017-11-09T10:20:11.925Z,35.43
2017-11-09T10:22:40.280Z,32.30
2017-11-09T10:25:08.597Z,29.97
2017-11-09T10:27:36.893Z,31.47
2017-11-09T10:30:05.186Z,29.87
2017-11-09T10:32:33.469Z,32.30
2017-11-09T10:35:04.680Z,36.67
2017-11-09T10:37:32.989Z,28.20
2017-11-09T10:40:01.361Z,29.27
2017-11-09T10:42:29.697Z,28.40
2017-11-09T10:44:57.995Z,29.70
2017-11-09T10:47:26.369Z,29.73
2017-11-09T10:49:54.689Z,30.60
2017-11-09T10:52:23.017Z,27.40
2017-11-09T10:54:51.359Z,25.53
2017-11-09T10:57:19.784Z,28.63
2017-11-09T10:59:48.086Z,28.97
2017-11-09T11:02:17.213Z,28.47
2017-11-09T11:04:45.514Z,29.67
2017-11-09T11:07:14.161Z,27.30
2017-11-09T11:09:42.499Z,29.73
2017-11-09T11:12:10.815Z,26.63
2017-11-09T11:14:39.912Z,27.10
2017-11-09T11:17:08.249Z,27.00
2017-11-09T11:19:36.546Z,27.30
2017-11-09T11:22:06.807Z,28.27
2017-11-09T11:24:35.111Z,28.13
2017-11-09T11:27:04.312Z,27.30
2017-11-09T11:29:32.620Z,29.70
2017-11-09T11:32:00.916Z,30.00
2017-11-09T11:34:29.994Z,26.87
2017-11-09T11:36:58.429Z,31.00
2017-11-09T11:39:27.540Z,29.53
2017-11-09T11:41:56.582Z,28.90
2017-11-09T11:44:24.893Z,26.80
2017-11-09T11:46:53.190Z,26.40
2017-11-09T11:49:21.520Z,27.50
2017-11-09T11:51:50.580Z,29.57
2017-11-09T11:54:18.904Z,28.93
2017-11-09T11:56:47.968Z,26.63
2017-11-09T11:59:16.309Z,31.00
2017-11-09T12:01:45.679Z,30.83
2017-11-09T12:04:14.822Z,30.73
2017-11-09T12:06:43.171Z,30.03
2017-11-09T12:09:12.269Z,27.47
2017-11-09T12:11:40.940Z,24.87
2017-11-09T12:14:09.503Z,26.43
2017-11-09T12:16:37.834Z,25.30
2017-11-09T12:19:06.193Z,23.60
2017-11-09T12:21:34.529Z,25.00
2017-11-09T12:24:02.815Z,23.20
2017-11-09T12:26:31.149Z,22.17
2017-11-09T12:29:00.224Z,21.47
2017-11-09T12:31:28.556Z,23.70
2017-11-09T12:33:57.754Z,25.20
2017-11-09T12:36:26.066Z,24.30
2017-11-09T12:38:55.125Z,23.53
2017-11-09T12:41:23.433Z,24.90
2017-11-09T12:43:51.726Z,22.67
2017-11-09T12:46:20.039Z,25.40
2017-11-09T12:48:49.097Z,25.03
2017-11-09T12:51:17.399Z,24.90
2017-11-09T12:53:45.720Z,25.60
2017-11-09T12:56:14.056Z,26.67
2017-11-09T12:58:42.396Z,26.83
2017-11-09T13:01:10.716Z,24.03
2017-11-09T13:03:39.055Z,23.47
2017-11-09T13:06:07.349Z,22.57
2017-11-09T13:08:35.667Z,24.60
2017-11-09T13:11:04.734Z,25.60
2017-11-09T13:13:33.047Z,23.90
2017-11-09T13:16:02.142Z,26.77
2017-11-09T13:18:30.488Z,22.00
2017-11-09T13:20:58.780Z,26.20
2017-11-09T13:23:27.103Z,25.07
2017-11-09T13:25:55.667Z,26.73
2017-11-09T13:28:23.984Z,26.30
2017-11-09T13:30:52.304Z,24.20
2017-11-09T13:33:21.369Z,23.20
2017-11-09T13:35:49.681Z,26.03
2017-11-09T13:38:18.039Z,25.37
2017-11-09T13:40:46.359Z,25.90
2017-11-09T13:43:14.704Z,25.80
2017-11-09T13:45:43.021Z,24.60
2017-11-09T13:48:11.362Z,26.03
2017-11-09T13:50:39.733Z,25.43
2017-11-09T13:53:08.068Z,22.03
2017-11-09T13:55:36.402Z,24.70
2017-11-09T13:58:04.697Z,22.20
2017-11-09T14:00:33.822Z,22.47
2017-11-09T14:03:02.890Z,24.63
2017-11-09T14:05:31.216Z,22.67
2017-11-09T14:08:00.294Z,22.23
2017-11-09T14:10:30.428Z,24.10
2017-11-09T14:12:58.749Z,25.50
2017-11-09T14:15:27.870Z,26.60
2017-11-09T14:17:56.227Z,27.00
2017-11-09T14:20:24.554Z,26.07
2017-11-09T14:22:52.859Z,25.37
2017-11-09T14:25:21.306Z,24.37
2017-11-09T14:27:49.613Z,26.87
2017-11-09T14:30:18.679Z,24.50
2017-11-09T14:32:46.986Z,24.00
2017-11-09T14:35:15.300Z,24.87
2017-11-09T14:37:44.409Z,24.93
2017-11-09T14:40:13.504Z,25.67
2017-11-09T14:42:42.706Z,25.87
2017-11-09T14:45:11.061Z,24.40
2017-11-09T14:47:39.398Z,25.43
2017-11-09T14:50:08.514Z,24.77
2017-11-09T14:52:36.968Z,24.13
2017-11-09T14:55:06.161Z,21.17
2017-11-09T14:57:34.484Z,22.97
2017-11-09T15:00:03.573Z,25.30
2017-11-09T15:02:31.912Z,22.90
2017-11-09T15:05:00.256Z,23.93
2017-11-09T15:07:28.548Z,22.93
2017-11-09T15:09:56.873Z,21.40
2017-11-09T15:12:25.228Z,23.17
2017-11-09T15:14:53.529Z,21.27
2017-11-09T15:17:22.761Z,22.30
2017-11-09T15:19:51.817Z,23.47
2017-11-09T15:22:20.136Z,26.50
2017-11-09T15:24:49.229Z,23.43
2017-11-09T15:27:18.442Z,24.77
2017-11-09T15:29:47.005Z,21.87
2017-11-09T15:32:15.298Z,21.30
2017-11-09T15:34:43.666Z,21.40
2017-11-09T15:37:12.023Z,21.83
2017-11-09T15:39:40.326Z,21.70
2017-11-09T15:42:09.420Z,23.13
2017-11-09T15:44:37.770Z,24.30
2017-11-09T15:47:06.145Z,22.90
2017-11-09T15:49:34.502Z,22.57
2017-11-09T15:52:02.853Z,22.30
2017-11-09T15:54:31.180Z,21.40
2017-11-09T15:57:00.268Z,20.53
2017-11-09T15:59:28.587Z,22.40
2017-11-09T16:01:56.921Z,20.97
2017-11-09T16:04:25.249Z,20.40
2017-11-09T16:06:54.346Z,22.13
2017-11-09T16:09:22.660Z,23.20
2017-11-09T16:11:50.969Z,22.53
2017-11-09T16:14:19.296Z,26.70
2017-11-09T16:16:47.617Z,25.10
2017-11-09T16:19:16.715Z,23.87
2017-11-09T16:21:45.014Z,25.90
2017-11-09T16:24:14.175Z,27.67
2017-11-09T16:26:42.495Z,28.30
2017-11-09T16:29:11.585Z,26.67
2017-11-09T16:31:39.884Z,29.30
2017-11-09T16:34:08.265Z,27.70
2017-11-09T16:36:36.608Z,29.80
2017-11-09T16:39:05.071Z,27.03
2017-11-09T16:41:34.202Z,27.20
2017-11-09T16:44:02.539Z,29.60
2017-11-09T16:46:30.841Z,26.63
2017-11-09T16:48:59.177Z,28.90
2017-11-09T16:51:27.739Z,25.10
2017-11-09T16:53:56.033Z,27.13
2017-11-09T16:56:24.400Z,25.07
2017-11-09T16:58:52.697Z,27.37
2017-11-09T17:01:21.004Z,25.70
2017-11-09T17:03:49.292Z,26.20
2017-11-09T17:06:18.368Z,28.07
2017-11-09T17:08:46.689Z,26.60
2017-11-09T17:11:18.317Z,27.20
2017-11-09T17:13:46.616Z,27.97
2017-11-09T17:16:14.914Z,28.27
2017-11-09T17:18:43.220Z,28.70
2017-11-09T17:21:11.536Z,28.30
2017-11-09T17:23:39.852Z,32.83
2017-11-09T17:26:08.213Z,31.60
2017-11-09T17:28:37.285Z,27.73
2017-11-09T17:31:05.640Z,27.50
2017-11-09T17:33:33.934Z,26.17
2017-11-09T17:36:02.235Z,27.07
2017-11-09T17:38:30.543Z,27.33
2017-11-09T17:40:58.867Z,28.83
2017-11-09T17:43:27.977Z,24.80
2017-11-09T17:45:56.301Z,27.63
2017-11-09T17:48:24.616Z,29.60
2017-11-09T17:50:52.911Z,26.70
2017-11-09T17:53:23.202Z,29.93
2017-11-09T17:55:51.528Z,27.80
2017-11-09T17:58:19.972Z,29.30
2017-11-09T18:00:48.300Z,26.67
2017-11-09T18:03:16.588Z,27.67
2017-11-09T18:05:45.800Z,26.60
2017-11-09T18:08:14.109Z,25.23
2017-11-09T18:10:42.468Z,26.90
2017-11-09T18:13:10.806Z,25.53
2017-11-09T18:15:39.900Z,25.87
2017-11-09T18:18:08.194Z,29.53
2017-11-09T18:20:36.519Z,23.97
2017-11-09T18:23:10.496Z,28.70
2017-11-09T18:25:38.846Z,26.97
2017-11-09T18:28:07.165Z,26.87
2017-11-09T18:30:35.510Z,29.40
2017-11-09T18:33:03.800Z,26.60
2017-11-09T18:35:32.154Z,26.60
2017-11-09T18:38:01.187Z,22.27
2017-11-09T18:40:31.180Z,23.23
2017-11-09T18:43:00.331Z,25.57
2017-11-09T18:45:29.788Z,25.00
2017-11-09T18:48:01.453Z,22.27
2017-11-09T18:50:31.179Z,25.60
2017-11-09T18:53:01.424Z,27.97
2017-11-09T18:55:32.413Z,26.70
2017-11-09T18:58:04.391Z,26.20
2017-11-09T19:00:46.455Z,24.53
2017-11-09T19:03:18.331Z,32.23
2017-11-09T19:05:48.125Z,31.47
2017-11-09T19:08:20.422Z,29.47
2017-11-09T19:10:53.442Z,29.40
2017-11-09T19:13:25.233Z,28.57
2017-11-09T19:18:30.331Z,26.97
2017-11-09T19:21:01.873Z,30.60
2017-11-09T19:23:33.390Z,26.57
2017-11-09T19:26:08.304Z,26.33
2017-11-09T19:28:40.821Z,29.40
2017-11-09T19:31:10.996Z,26.10
2017-11-09T19:33:42.180Z,26.80
2017-11-09T19:36:19.979Z,26.40
2017-11-09T19:38:53.782Z,25.40
2017-11-09T19:41:30.824Z,27.03
2017-11-09T19:44:07.165Z,29.17
2017-11-09T19:46:38.034Z,29.60
2017-11-09T19:49:08.923Z,25.63
2017-11-09T19:51:41.295Z,29.00
2017-11-09T19:54:15.442Z,25.87
2017-11-09T20:02:01.689Z,25.87
2017-11-09T20:04:36.414Z,28.03
2017-11-09T20:07:10.310Z,26.27
2017-11-09T20:09:40.232Z,27.60
2017-11-09T20:12:14.786Z,27.27
2017-11-09T20:17:22.819Z,27.30
2017-11-09T20:19:55.750Z,26.73
2017-11-09T20:22:26.131Z,27.80
2017-11-09T20:24:56.474Z,27.60
2017-11-09T20:27:29.510Z,25.57
2017-11-09T20:30:01.848Z,26.27
2017-11-09T20:32:34.118Z,25.37
2017-11-09T20:35:02.863Z,23.23
2017-11-09T20:37:31.185Z,24.67
2017-11-09T20:39:59.498Z,26.20
2017-11-09T20:42:27.831Z,22.97
2017-11-09T20:44:56.889Z,22.93
2017-11-09T20:47:25.219Z,21.57
2017-11-09T20:49:57.141Z,21.67
2017-11-09T20:52:25.443Z,22.57
2017-11-09T20:54:53.748Z,19.67
2017-11-09T20:57:22.135Z,21.53
2017-11-09T20:59:50.423Z,19.77
2017-11-09T21:02:18.970Z,20.47
2017-11-09T21:04:47.381Z,20.07
2017-11-09T21:07:16.514Z,25.00
2017-11-09T21:09:44.811Z,21.47
2017-11-09T21:12:13.104Z,19.07
2017-11-09T21:14:41.431Z,21.60
2017-11-09T21:17:09.799Z,19.10
2017-11-09T21:19:38.100Z,21.33
2017-11-09T21:22:07.313Z,21.00
2017-11-09T21:24:35.638Z,23.47
2017-11-09T21:27:04.021Z,21.83
2017-11-09T21:29:32.337Z,19.50
2017-11-09T21:32:00.646Z,17.60
2017-11-09T21:34:28.963Z,20.00
2017-11-09T21:36:57.261Z,18.13
2017-11-09T21:39:25.579Z,18.50
2017-11-09T21:41:53.888Z,19.90
2017-11-09T21:44:22.608Z,18.80
2017-11-09T21:46:51.245Z,18.00
2017-11-09T21:49:20.080Z,18.47
2017-11-09T21:51:49.590Z,17.93
2017-11-09T21:54:18.434Z,17.53
2017-11-09T21:56:46.924Z,16.57
2017-11-09T21:59:15.993Z,16.87
2017-11-09T22:01:44.303Z,17.70
2017-11-09T22:04:12.606Z,17.77
2017-11-09T22:06:40.902Z,13.90
2017-11-09T22:09:09.238Z,16.70
2017-11-09T22:11:37.627Z,14.93
2017-11-09T22:14:05.988Z,15.20
2017-11-09T22:16:34.393Z,15.33
2017-11-09T22:19:02.685Z,15.50
2017-11-09T22:21:30.973Z,14.37
2017-11-09T22:23:59.273Z,14.63
2017-11-09T22:26:27.571Z,14.97
2017-11-09T22:28:55.864Z,16.43
2017-11-09T22:31:24.152Z,15.07
2017-11-09T22:33:52.481Z,16.70
2017-11-09T22:36:20.770Z,15.73
2017-11-09T22:38:49.060Z,16.97
2017-11-09T22:41:17.376Z,13.50
2017-11-09T22:43:45.699Z,15.90
2017-11-09T22:46:14.033Z,14.47
2017-11-09T22:48:44.012Z,16.60
2017-11-09T22:51:12.314Z,15.77
2017-11-09T22:53:40.639Z,17.30
2017-11-09T22:56:09.709Z,15.80
2017-11-09T22:58:38.036Z,17.00
2017-11-09T23:01:07.156Z,17.93
2017-11-09T23:03:35.504Z,16.73
2017-11-09T23:06:03.825Z,17.80
2017-11-09T23:08:32.875Z,18.87
2017-11-09T23:11:01.178Z,16.90
2017-11-09T23:13:29.477Z,17.67
2017-11-09T23:15:57.768Z,18.47
2017-11-09T23:18:26.195Z,17.23
2017-11-09T23:20:55.260Z,17.70
2017-11-09T23:23:23.577Z,17.63
2017-11-09T23:25:52.645Z,16.20
2017-11-09T23:28:20.969Z,17.03
2017-11-09T23:30:49.261Z,15.53
2017-11-09T23:33:17.550Z,15.83
2017-11-09T23:35:45.868Z,13.90
2017-11-09T23:38:14.160Z,15.33
2017-11-09T23:40:42.474Z,14.43
2017-11-09T23:43:10.809Z,14.57
2017-11-09T23:45:39.160Z,16.13
2017-11-09T23:48:07.461Z,15.13
2017-11-09T23:50:35.773Z,16.00
2017-11-09T23:53:04.066Z,13.30
2017-11-09T23:55:32.350Z,16.90
2017-11-09T23:58:00.667Z,16.10
